Time;durP1;ratioP1;P1;durP2;ratioP2;P2;SDS_P1;SDS_P2;PMS_P1;PMS_P2;Temp;Humidity;BMP_temperature;BMP_pressure;BME280_temperature;BME280_humidity;BME280_pressure;Samples;Min_cycle;Max_cycle;Signal;HPM_P1;HPM_P2
2020/12/09 00:01:51;;;;;;;67.85;33.58;;;5.20;87.80;;;;;;5064757;28;20021;-74
2020/12/09 00:04:18;;;;;;;67.90;32.58;;;5.10;88.10;;;;;;5041783;28;20022;-74
2020/12/09 00:06:44;;;;;;;67.95;32.15;;;5.10;87.50;;;;;;5051244;28;20485;-74
2020/12/09 00:09:13;;;;;;;62.78;31.15;;;5.10;87.70;;;;;;5010804;28;20176;-74
2020/12/09 00:11:40;;;;;;;62.40;30.20;;;5.10;87.90;;;;;;5004071;28;20036;-74
2020/12/09 00:14:07;;;;;;;67.47;31.02;;;5.10;87.90;;;;;;5025866;28;20025;-74
2020/12/09 00:16:32;;;;;;;67.65;29.65;;;5.00;87.80;;;;;;5021507;28;20065;-75
2020/12/09 00:18:59;;;;;;;62.70;30.80;;;5.00;87.90;;;;;;5009124;28;20111;-74
2020/12/09 00:21:25;;;;;;;61.47;31.80;;;5.00;88.00;;;;;;5021905;28;20065;-75
2020/12/09 00:23:54;;;;;;;59.95;29.55;;;5.00;87.90;;;;;;5063202;28;20103;-74
2020/12/09 00:26:21;;;;;;;59.47;28.70;;;5.00;87.80;;;;;;5049426;28;20162;-74
2020/12/09 00:28:47;;;;;;;65.40;29.92;;;5.00;87.80;;;;;;5034866;28;20014;-73
2020/12/09 00:31:17;;;;;;;66.03;31.15;;;5.00;87.70;;;;;;5025947;28;20025;-74
2020/12/09 00:33:45;;;;;;;66.00;31.43;;;5.00;87.90;;;;;;5065956;28;20034;-75
2020/12/09 00:36:19;;;;;;;67.90;30.60;;;5.00;87.90;;;;;;5051262;28;20037;-74
2020/12/09 00:38:47;;;;;;;60.50;28.70;;;5.00;88.00;;;;;;5040244;28;20492;-74
2020/12/09 00:41:21;;;;;;;65.35;30.00;;;5.00;87.90;;;;;;4994732;28;20033;-74
2020/12/09 00:43:47;;;;;;;65.97;30.58;;;5.00;87.90;;;;;;5013969;28;20028;-74
2020/12/09 00:46:21;;;;;;;71.35;31.20;;;5.00;87.90;;;;;;5032327;28;20063;-74
2020/12/09 00:48:48;;;;;;;67.80;30.67;;;4.90;87.90;;;;;;5051699;28;20017;-74
2020/12/09 00:51:19;;;;;;;65.30;30.92;;;5.00;87.60;;;;;;5004958;28;20079;-73
2020/12/09 00:53:45;;;;;;;57.75;28.75;;;5.00;87.40;;;;;;5041360;28;20022;-73
2020/12/09 00:56:11;;;;;;;62.65;30.00;;;4.90;87.50;;;;;;5018125;28;20140;-74
2020/12/09 00:58:37;;;;;;;69.57;32.05;;;4.90;87.70;;;;;;5039442;28;20497;-74
2020/12/09 01:01:05;;;;;;;68.65;30.52;;;4.80;87.70;;;;;;5000137;28;20448;-74
2020/12/09 01:03:31;;;;;;;65.38;30.10;;;4.80;88.00;;;;;;5035557;28;20025;-73
2020/12/09 01:05:57;;;;;;;70.22;31.63;;;4.80;88.10;;;;;;5023396;28;20499;-75
2020/12/09 01:08:23;;;;;;;69.45;31.83;;;4.70;88.00;;;;;;5040580;28;20493;-73
2020/12/09 01:10:49;;;;;;;69.47;30.98;;;4.80;88.30;;;;;;5060830;28;20095;-73
2020/12/09 01:13:16;;;;;;;63.90;29.23;;;4.70;88.10;;;;;;5033772;28;20084;-74
2020/12/09 01:15:42;;;;;;;62.30;28.65;;;4.70;88.00;;;;;;5048478;28;20025;-74
2020/12/09 01:18:08;;;;;;;67.70;28.42;;;4.70;88.20;;;;;;5049071;28;20026;-74
2020/12/09 01:20:34;;;;;;;57.10;26.90;;;4.60;88.30;;;;;;5017739;28;20097;-74
2020/12/09 01:22:59;;;;;;;68.85;29.77;;;4.60;88.20;;;;;;5034014;28;20516;-74
2020/12/09 01:25:25;;;;;;;58.88;27.58;;;4.60;88.20;;;;;;5034159;28;20141;-74
2020/12/09 01:27:51;;;;;;;60.20;28.75;;;4.60;88.40;;;;;;5025304;28;20032;-74
2020/12/09 01:30:16;;;;;;;68.63;30.77;;;4.60;88.20;;;;;;5032636;28;20021;-74
2020/12/09 01:32:42;;;;;;;73.47;30.85;;;4.60;88.30;;;;;;5053142;28;20113;-73
2020/12/09 01:35:08;;;;;;;66.88;29.50;;;4.60;88.40;;;;;;5021626;28;20021;-75
2020/12/09 01:37:34;;;;;;;71.55;31.00;;;4.60;88.50;;;;;;5055294;28;20043;-74
2020/12/09 01:39:59;;;;;;;64.13;28.52;;;4.60;88.70;;;;;;5016142;28;20719;-74
2020/12/09 01:42:25;;;;;;;71.63;31.25;;;4.60;88.70;;;;;;5053189;28;20116;-73
2020/12/09 01:44:51;;;;;;;69.60;30.67;;;4.60;88.70;;;;;;5048009;28;20401;-75
2020/12/09 01:47:17;;;;;;;70.53;30.15;;;4.70;88.70;;;;;;5034427;28;20063;-74
2020/12/09 01:49:43;;;;;;;74.75;31.60;;;4.60;88.70;;;;;;5022517;28;20033;-74
2020/12/09 01:52:09;;;;;;;70.47;30.63;;;4.60;88.70;;;;;;5055065;28;20397;-75
2020/12/09 01:54:35;;;;;;;68.85;28.92;;;4.60;88.80;;;;;;5013852;28;20476;-74
2020/12/09 01:57:04;;;;;;;71.90;31.20;;;4.60;88.60;;;;;;5032319;28;20033;-74
2020/12/09 01:59:29;;;;;;;64.30;29.52;;;4.60;88.60;;;;;;5034061;28;20033;-75
2020/12/09 02:01:55;;;;;;;63.53;27.85;;;4.60;88.70;;;;;;5022902;28;20034;-74
2020/12/09 02:04:21;;;;;;;63.45;28.85;;;4.60;89.10;;;;;;5050048;28;20033;-74
2020/12/09 02:06:50;;;;;;;71.15;29.83;;;4.60;89.20;;;;;;5020374;28;20059;-74
2020/12/09 02:09:16;;;;;;;70.75;30.58;;;4.60;89.20;;;;;;5022557;28;20141;-75
2020/12/09 02:11:42;;;;;;;67.03;28.70;;;4.60;89.20;;;;;;5007323;28;20108;-74
2020/12/09 02:14:07;;;;;;;69.60;30.48;;;4.60;89.10;;;;;;5038121;28;20470;-75
2020/12/09 02:16:33;;;;;;;64.07;29.70;;;4.60;88.90;;;;;;5016814;28;20074;-74
2020/12/09 02:18:59;;;;;;;63.35;28.05;;;4.50;89.00;;;;;;5022033;28;20843;-75
2020/12/09 02:21:24;;;;;;;68.95;29.10;;;4.50;89.10;;;;;;5004684;28;20393;-74
2020/12/09 02:23:50;;;;;;;67.20;29.58;;;4.50;89.30;;;;;;5037692;28;20029;-75
2020/12/09 02:26:16;;;;;;;72.20;30.77;;;4.50;89.20;;;;;;5052605;28;20026;-74
2020/12/09 02:28:41;;;;;;;63.88;28.75;;;4.50;89.40;;;;;;5020888;28;20026;-75
2020/12/09 02:31:07;;;;;;;70.03;28.73;;;4.40;89.40;;;;;;5014667;28;20473;-74
2020/12/09 02:33:33;;;;;;;79.28;29.50;;;4.50;89.40;;;;;;5061136;28;20105;-76
2020/12/09 02:35:59;;;;;;;67.07;28.48;;;4.40;89.50;;;;;;5006732;28;20433;-74
2020/12/09 02:38:24;;;;;;;70.95;30.85;;;4.40;89.60;;;;;;5020041;28;20025;-74
2020/12/09 02:40:50;;;;;;;68.55;30.33;;;4.40;89.80;;;;;;5035076;28;20029;-74
2020/12/09 02:43:16;;;;;;;68.55;29.75;;;4.40;89.70;;;;;;5001246;28;20025;-75
2020/12/09 02:45:42;;;;;;;69.15;29.98;;;4.40;89.90;;;;;;5039174;28;20496;-74
2020/12/09 02:48:07;;;;;;;75.47;29.52;;;4.50;89.70;;;;;;5019485;28;20025;-74
2020/12/09 02:50:33;;;;;;;72.30;31.27;;;4.40;89.80;;;;;;5033354;28;20152;-75
2020/12/09 02:52:59;;;;;;;71.47;28.55;;;4.40;89.90;;;;;;5041195;28;20124;-74
2020/12/09 02:55:24;;;;;;;65.38;27.77;;;4.40;89.90;;;;;;5006784;28;20021;-74
2020/12/09 02:57:50;;;;;;;68.25;28.52;;;4.40;90.00;;;;;;5002385;28;20033;-74
2020/12/09 03:00:16;;;;;;;60.88;27.38;;;4.30;90.10;;;;;;5033747;28;20033;-75
2020/12/09 03:02:41;;;;;;;58.28;25.40;;;4.30;90.10;;;;;;5050457;28;20022;-75
2020/12/09 03:05:08;;;;;;;67.38;27.75;;;4.20;90.10;;;;;;5036405;28;20022;-74
2020/12/09 03:07:34;;;;;;;62.83;26.23;;;4.30;90.10;;;;;;5030926;28;20025;-74
2020/12/09 03:09:59;;;;;;;62.65;26.88;;;4.30;90.10;;;;;;5049263;28;20021;-76
2020/12/09 03:12:25;;;;;;;65.47;28.00;;;4.30;90.10;;;;;;5009095;28;20542;-75
2020/12/09 03:14:51;;;;;;;68.60;27.90;;;4.30;90.10;;;;;;5009557;28;20120;-76
2020/12/09 03:17:17;;;;;;;66.80;27.88;;;4.30;90.00;;;;;;5043212;28;20037;-75
2020/12/09 03:19:42;;;;;;;62.70;26.73;;;4.30;90.00;;;;;;5008825;28;20467;-76
2020/12/09 03:22:08;;;;;;;62.35;25.73;;;4.30;90.00;;;;;;5036311;28;20107;-76
2020/12/09 03:24:34;;;;;;;62.53;26.92;;;4.30;90.10;;;;;;5047943;28;20109;-76
2020/12/09 03:26:59;;;;;;;71.03;27.63;;;4.30;90.00;;;;;;5010294;28;20025;-74
2020/12/09 03:29:25;;;;;;;65.65;27.30;;;4.30;89.90;;;;;;5025373;28;20025;-76
2020/12/09 03:31:51;;;;;;;61.92;26.08;;;4.30;90.00;;;;;;5025475;28;20024;-75
2020/12/09 03:34:17;;;;;;;61.40;27.00;;;4.30;89.90;;;;;;5023840;28;20028;-76
2020/12/09 03:36:42;;;;;;;62.47;26.05;;;4.30;89.80;;;;;;5009840;28;20095;-76
2020/12/09 03:39:08;;;;;;;62.20;26.80;;;4.40;89.80;;;;;;5024798;28;20030;-75
2020/12/09 03:41:33;;;;;;;62.38;26.20;;;4.30;89.90;;;;;;5025319;28;20099;-76
2020/12/09 03:43:59;;;;;;;65.35;28.05;;;4.30;89.90;;;;;;5003945;28;20045;-76
2020/12/09 03:46:25;;;;;;;65.60;28.13;;;4.30;89.80;;;;;;5009074;28;20075;-76
2020/12/09 03:48:50;;;;;;;62.03;25.42;;;4.30;89.90;;;;;;5025214;28;20032;-76
2020/12/09 03:51:16;;;;;;;66.47;27.73;;;4.30;89.80;;;;;;5025481;28;20029;-75
2020/12/09 03:53:42;;;;;;;64.90;26.75;;;4.30;90.00;;;;;;5033222;28;20393;-76
2020/12/09 03:56:07;;;;;;;66.60;26.80;;;4.30;90.00;;;;;;5026626;28;20100;-76
2020/12/09 03:58:33;;;;;;;63.45;25.98;;;4.30;90.00;;;;;;5024219;28;20107;-75
2020/12/09 04:00:59;;;;;;;66.07;27.15;;;4.40;89.90;;;;;;5021420;28;20480;-76
2020/12/09 04:03:24;;;;;;;74.53;28.70;;;4.40;90.00;;;;;;5008464;28;20027;-76
2020/12/09 04:05:50;;;;;;;67.68;26.55;;;4.30;90.00;;;;;;5009063;28;20027;-76
2020/12/09 04:08:16;;;;;;;72.43;30.05;;;4.40;90.00;;;;;;5042860;28;20099;-76
2020/12/09 04:10:41;;;;;;;71.57;30.00;;;4.40;90.00;;;;;;5023072;28;20048;-76
2020/12/09 04:13:07;;;;;;;71.95;28.77;;;4.40;90.10;;;;;;5024535;28;20080;-75
2020/12/09 04:15:33;;;;;;;73.00;29.50;;;4.40;90.10;;;;;;5021905;28;20088;-75
2020/12/09 04:17:58;;;;;;;65.40;28.48;;;4.40;90.10;;;;;;5008351;28;20029;-75
2020/12/09 04:20:24;;;;;;;77.55;29.52;;;4.40;90.10;;;;;;5035397;28;20552;-76
2020/12/09 04:22:50;;;;;;;80.55;30.25;;;4.40;90.10;;;;;;5022166;28;20033;-76
2020/12/09 04:25:15;;;;;;;74.32;29.48;;;4.40;90.10;;;;;;5042595;28;20060;-76
2020/12/09 04:27:41;;;;;;;67.07;28.65;;;4.40;90.10;;;;;;5041100;28;20037;-77
2020/12/09 04:30:07;;;;;;;70.45;30.27;;;4.40;90.20;;;;;;5024075;28;20029;-76
2020/12/09 04:32:32;;;;;;;69.90;28.30;;;4.40;90.10;;;;;;5043193;28;20021;-74
2020/12/09 04:34:59;;;;;;;65.97;28.67;;;4.40;90.10;;;;;;5023654;28;20105;-76
2020/12/09 04:37:27;;;;;;;68.78;29.02;;;4.40;90.20;;;;;;5035970;28;20035;-76
2020/12/09 04:39:57;;;;;;;72.97;28.77;;;4.40;90.10;;;;;;5040010;28;20392;-75
2020/12/09 04:42:24;;;;;;;69.20;28.13;;;4.50;90.00;;;;;;5021068;28;20130;-74
2020/12/09 04:44:51;;;;;;;76.45;29.83;;;4.40;90.00;;;;;;5024606;28;20067;-76
2020/12/09 04:47:29;;;;;;;72.07;29.52;;;4.40;90.00;;;;;;5024293;28;20040;-76
2020/12/09 04:50:11;;;;;;;67.68;28.20;;;4.50;89.90;;;;;;5022964;28;20409;-76
2020/12/09 04:52:47;;;;;;;68.57;25.88;;;4.50;89.90;;;;;;5039834;28;20029;-76
2020/12/09 04:55:15;;;;;;;80.00;29.73;;;4.40;90.00;;;;;;5023936;28;20396;-76
2020/12/09 04:57:48;;;;;;;68.90;27.35;;;4.40;90.30;;;;;;5038635;28;20451;-76
2020/12/09 05:00:14;;;;;;;74.68;28.88;;;4.40;90.10;;;;;;5004012;28;20438;-75
2020/12/09 05:02:50;;;;;;;70.82;29.00;;;4.40;90.00;;;;;;5028974;28;20029;-76
2020/12/09 05:05:26;;;;;;;72.45;28.77;;;4.40;90.00;;;;;;5048958;28;20065;-76
2020/12/09 05:07:53;;;;;;;68.03;28.95;;;4.40;90.00;;;;;;5032308;28;20083;-76
2020/12/09 05:10:21;;;;;;;62.90;27.25;;;4.40;89.80;;;;;;5007567;28;20033;-75
2020/12/09 05:12:55;;;;;;;71.72;28.05;;;4.40;89.90;;;;;;5022505;28;20072;-76
2020/12/09 05:15:25;;;;;;;75.47;28.67;;;4.40;89.90;;;;;;5038362;28;20017;-75
2020/12/09 05:17:59;;;;;;;75.25;29.23;;;4.40;89.90;;;;;;5044765;28;20396;-76
2020/12/09 05:20:36;;;;;;;71.47;29.27;;;4.40;89.90;;;;;;5039759;28;20033;-77
2020/12/09 05:23:06;;;;;;;61.65;26.80;;;4.40;90.00;;;;;;5053207;28;20389;-76
2020/12/09 05:25:34;;;;;;;67.65;27.35;;;4.40;89.90;;;;;;5031604;28;20026;-76
2020/12/09 05:28:00;;;;;;;72.40;28.40;;;4.40;89.80;;;;;;5002002;28;20041;-75
2020/12/09 05:30:56;;;;;;;69.53;27.83;;;4.40;89.90;;;;;;5051247;28;20053;-76
2020/12/09 05:33:30;;;;;;;66.68;27.45;;;4.40;89.80;;;;;;5041547;28;20029;-76
2020/12/09 05:36:03;;;;;;;64.22;27.20;;;4.40;89.90;;;;;;5053952;28;20021;-75
2020/12/09 05:38:30;;;;;;;60.47;25.35;;;4.40;89.90;;;;;;5049800;28;20078;-76
2020/12/09 05:40:57;;;;;;;64.60;27.50;;;4.40;90.00;;;;;;5033575;28;20018;-75
2020/12/09 05:43:23;;;;;;;68.13;27.65;;;4.40;89.80;;;;;;5034637;28;20424;-75
2020/12/09 05:45:49;;;;;;;62.00;26.92;;;4.40;89.70;;;;;;5024823;28;20061;-76
2020/12/09 05:48:21;;;;;;;62.97;27.60;;;4.40;89.70;;;;;;5051912;28;20523;-76
2020/12/09 05:51:01;;;;;;;66.45;26.73;;;4.40;89.80;;;;;;5051499;28;20060;-76
2020/12/09 05:53:35;;;;;;;67.80;28.00;;;4.40;89.70;;;;;;4995021;28;20056;-76
2020/12/09 05:56:12;;;;;;;68.20;28.25;;;4.40;89.80;;;;;;5032268;28;20075;-77
2020/12/09 05:58:49;;;;;;;69.50;29.50;;;4.40;89.80;;;;;;5050623;28;20036;-75
2020/12/09 06:01:23;;;;;;;70.53;28.85;;;4.40;89.70;;;;;;4980835;28;20042;-76
2020/12/09 06:03:51;;;;;;;67.50;27.65;;;4.40;89.90;;;;;;4989466;28;20407;-76
2020/12/09 06:06:24;;;;;;;65.50;27.60;;;4.40;90.00;;;;;;5021897;28;20040;-77
2020/12/09 06:08:52;;;;;;;72.45;27.65;;;4.40;90.00;;;;;;5022221;28;20029;-77
2020/12/09 06:11:23;;;;;;;72.43;29.40;;;4.40;90.00;;;;;;5042827;28;20024;-77
2020/12/09 06:13:52;;;;;;;69.20;28.40;;;4.40;90.00;;;;;;5061204;28;20444;-76
2020/12/09 06:16:19;;;;;;;71.53;28.20;;;4.40;90.20;;;;;;5021346;28;20026;-78
2020/12/09 06:18:47;;;;;;;69.63;27.65;;;4.40;90.00;;;;;;5026431;28;20086;-77
2020/12/09 06:21:13;;;;;;;77.50;30.40;;;4.40;90.00;;;;;;5025340;28;20075;-76
2020/12/09 06:23:39;;;;;;;71.20;29.25;;;4.40;90.00;;;;;;5023441;28;20492;-75
2020/12/09 06:26:06;;;;;;;71.03;28.90;;;4.40;89.90;;;;;;5045684;28;20029;-76
2020/12/09 06:28:34;;;;;;;71.68;31.40;;;4.40;89.90;;;;;;5016020;28;20021;-77
2020/12/09 06:31:23;;;;;;;71.80;30.17;;;4.40;89.80;;;;;;5063391;28;20025;-76
2020/12/09 06:33:54;;;;;;;78.15;30.52;;;4.50;89.90;;;;;;4997275;28;20047;-76
2020/12/09 06:36:30;;;;;;;71.78;29.30;;;4.40;90.00;;;;;;5053303;28;20041;-77
2020/12/09 06:39:08;;;;;;;79.10;31.52;;;4.50;90.00;;;;;;5039152;28;20027;-77
2020/12/09 06:41:34;;;;;;;71.82;29.42;;;4.40;90.00;;;;;;5028918;28;20056;-77
2020/12/09 06:44:16;;;;;;;71.88;29.80;;;4.50;90.00;;;;;;5008030;28;20056;-77
2020/12/09 06:46:47;;;;;;;70.45;29.88;;;4.50;89.90;;;;;;5040240;28;20076;-76
2020/12/09 06:49:28;;;;;;;;;;;4.50;89.90;;;;;;5031648;28;20028;-76
2020/12/09 06:51:58;;;;;;;74.07;29.52;;;4.50;89.90;;;;;;5010599;28;19905;-76
2020/12/09 06:54:41;;;;;;;72.22;30.30;;;4.40;90.00;;;;;;5046675;28;20460;-76
2020/12/09 06:57:15;;;;;;;73.57;29.95;;;4.40;90.30;;;;;;5020746;28;20029;-77
2020/12/09 06:59:45;;;;;;;74.63;31.35;;;4.50;90.00;;;;;;5061753;28;20035;-76
2020/12/09 07:02:26;;;;;;;72.18;30.50;;;4.50;90.00;;;;;;5047943;28;20112;-77
2020/12/09 07:04:55;;;;;;;70.82;29.98;;;4.50;89.90;;;;;;5036850;28;20080;-77
2020/12/09 07:07:40;;;;;;;72.35;30.30;;;4.50;89.90;;;;;;5038623;28;20025;-78
2020/12/09 07:10:09;;;;;;;72.65;29.58;;;4.50;90.00;;;;;;5040156;28;20099;-77
2020/12/09 07:12:35;;;;;;;67.72;28.98;;;4.40;90.10;;;;;;5048486;28;20036;-76
2020/12/09 07:15:01;;;;;;;77.47;29.33;;;4.50;90.00;;;;;;5012970;28;20453;-78
2020/12/09 07:17:28;;;;;;;72.55;29.83;;;4.50;90.10;;;;;;5054861;28;20041;-78
2020/12/09 07:19:56;;;;;;;72.78;30.15;;;4.50;90.10;;;;;;5042946;28;20025;-78
2020/12/09 07:22:22;;;;;;;70.80;29.80;;;4.50;90.00;;;;;;5029551;28;20021;-76
2020/12/09 07:24:48;;;;;;;73.82;30.80;;;4.50;90.10;;;;;;5060188;28;20037;-77
2020/12/09 07:27:14;;;;;;;72.72;31.02;;;4.50;90.10;;;;;;5021672;28;20017;-77
2020/12/09 07:29:40;;;;;;;70.05;29.75;;;4.50;90.00;;;;;;5025779;28;20389;-76
2020/12/09 07:32:07;;;;;;;68.85;30.67;;;4.50;90.10;;;;;;5043002;28;20024;-76
2020/12/09 07:34:34;;;;;;;73.70;28.92;;;4.50;90.10;;;;;;5034604;28;20397;-78
2020/12/09 07:37:00;;;;;;;69.30;28.52;;;4.50;90.10;;;;;;5018411;28;20922;-75
2020/12/09 07:39:27;;;;;;;73.38;31.98;;;4.50;90.10;;;;;;5015357;28;20029;-75
2020/12/09 07:41:57;;;;;;;70.57;29.40;;;4.50;90.10;;;;;;5022336;28;20026;-78
2020/12/09 07:44:22;;;;;;;75.32;29.85;;;4.50;90.20;;;;;;5010060;28;20025;-78
2020/12/09 07:46:56;;;;;;;65.10;28.35;;;4.50;90.30;;;;;;5054553;28;20108;-78
2020/12/09 07:49:22;;;;;;;68.18;29.02;;;4.50;90.30;;;;;;5002597;28;20099;-78
2020/12/09 07:51:51;;;;;;;64.65;28.25;;;4.50;90.10;;;;;;5008704;28;20025;-75
2020/12/09 07:54:17;;;;;;;67.53;29.73;;;4.50;90.20;;;;;;5004645;28;20021;-75
2020/12/09 07:56:43;;;;;;;64.07;29.35;;;4.50;90.30;;;;;;5020331;28;20567;-76
2020/12/09 07:59:12;;;;;;;62.25;27.63;;;4.50;90.20;;;;;;5037859;28;20064;-75
2020/12/09 08:01:37;;;;;;;77.88;30.27;;;4.60;90.30;;;;;;5007136;28;20029;-75
2020/12/09 08:04:04;;;;;;;78.10;30.77;;;4.60;90.20;;;;;;5007749;28;20047;-75
2020/12/09 08:06:29;;;;;;;69.60;30.00;;;4.60;90.00;;;;;;5056255;28;20033;-76
2020/12/09 08:08:55;;;;;;;64.38;28.30;;;4.50;90.10;;;;;;5034917;28;20493;-75
2020/12/09 08:11:21;;;;;;;62.65;27.13;;;4.50;90.10;;;;;;5021716;28;20021;-75
2020/12/09 08:13:47;;;;;;;65.18;29.42;;;4.50;90.10;;;;;;5050628;28;20113;-75
2020/12/09 08:16:14;;;;;;;61.28;28.17;;;4.50;90.10;;;;;;5021007;28;20104;-76
2020/12/09 08:18:41;;;;;;;66.70;28.23;;;4.50;90.20;;;;;;5007243;28;20030;-75
2020/12/09 08:21:10;;;;;;;68.05;28.38;;;4.50;90.20;;;;;;5041302;28;20115;-76
2020/12/09 08:23:47;;;;;;;68.47;29.00;;;4.60;90.20;;;;;;5025238;28;20075;-75
2020/12/09 08:26:26;;;;;;;71.03;27.48;;;4.60;90.20;;;;;;5050037;28;20017;-75
2020/12/09 08:28:55;;;;;;;62.00;26.45;;;4.60;90.20;;;;;;5035897;28;20037;-75
2020/12/09 08:31:20;;;;;;;69.75;28.92;;;4.60;90.20;;;;;;5033784;28;20021;-75
2020/12/09 08:33:46;;;;;;;67.22;28.90;;;4.60;90.10;;;;;;5019577;28;20060;-75
2020/12/09 08:36:13;;;;;;;65.53;29.08;;;4.60;90.00;;;;;;5050882;28;20297;-75
2020/12/09 08:38:45;;;;;;;69.82;30.05;;;4.60;90.00;;;;;;5005263;28;20021;-75
2020/12/09 08:41:16;;;;;;;67.22;27.63;;;4.60;90.10;;;;;;5040978;28;20067;-76
2020/12/09 08:43:43;;;;;;;;;;;4.60;90.10;;;;;;5022628;28;20040;-75
2020/12/09 08:46:10;;;;;;;66.82;28.25;;;4.60;90.10;;;;;;5037179;28;19917;-75
2020/12/09 08:48:38;;;;;;;65.90;27.70;;;4.60;90.20;;;;;;5039951;28;20104;-75
2020/12/09 08:51:05;;;;;;;71.18;28.52;;;4.60;90.10;;;;;;5019994;28;20021;-75
2020/12/09 08:53:31;;;;;;;72.82;28.52;;;4.60;90.20;;;;;;5006852;28;20017;-75
2020/12/09 08:55:57;;;;;;;67.85;28.08;;;4.60;90.20;;;;;;5022249;28;20120;-76
2020/12/09 08:58:23;;;;;;;68.72;28.95;;;4.60;90.20;;;;;;5004523;28;20443;-75
2020/12/09 09:00:49;;;;;;;64.85;29.23;;;4.60;90.20;;;;;;5051832;28;20032;-75
2020/12/09 09:03:18;;;;;;;63.45;26.88;;;4.70;90.30;;;;;;5034513;28;20056;-75
2020/12/09 09:05:46;;;;;;;63.00;26.70;;;4.60;90.30;;;;;;5019759;28;20434;-75
2020/12/09 09:08:15;;;;;;;64.68;28.30;;;4.70;90.20;;;;;;5021942;28;20025;-75
2020/12/09 09:10:42;;;;;;;58.30;26.50;;;4.70;90.10;;;;;;5073189;22;20063;-77
2020/12/09 09:13:09;;;;;;;58.25;26.52;;;4.70;90.20;;;;;;5051588;28;20025;-77
2020/12/09 09:15:35;;;;;;;58.50;26.15;;;4.60;90.10;;;;;;5021664;28;20036;-77
2020/12/09 09:18:02;;;;;;;56.25;25.00;;;4.60;90.10;;;;;;5023396;28;20395;-77
2020/12/09 09:20:28;;;;;;;59.95;25.52;;;4.60;90.10;;;;;;5026269;28;20025;-77
2020/12/09 09:22:55;;;;;;;62.22;26.35;;;4.60;90.10;;;;;;5003698;28;20551;-77
2020/12/09 09:25:21;;;;;;;64.03;26.08;;;4.70;90.00;;;;;;5014954;28;20061;-77
2020/12/09 09:27:48;;;;;;;61.35;27.25;;;4.60;90.00;;;;;;5040261;28;20443;-77
2020/12/09 09:30:14;;;;;;;56.75;24.88;;;4.70;90.00;;;;;;5002677;28;20040;-77
2020/12/09 09:32:40;;;;;;;54.47;25.30;;;4.60;90.00;;;;;;5023034;28;20468;-77
2020/12/09 09:35:05;;;;;;;64.57;27.83;;;4.60;90.00;;;;;;5035782;28;20026;-77
2020/12/09 09:37:31;;;;;;;61.40;26.90;;;4.70;90.00;;;;;;5008176;28;20724;-77
2020/12/09 09:39:57;;;;;;;56.78;26.08;;;4.70;89.80;;;;;;5020169;28;20025;-77
2020/12/09 09:42:26;;;;;;;61.92;27.70;;;4.70;90.00;;;;;;5017158;28;20029;-77
2020/12/09 09:44:55;;;;;;;54.92;25.98;;;4.70;90.00;;;;;;5008097;28;20021;-77
2020/12/09 09:47:21;;;;;;;57.65;26.05;;;4.70;90.00;;;;;;5033778;28;20060;-77
2020/12/09 09:49:46;;;;;;;58.40;26.38;;;4.70;90.10;;;;;;5029689;28;20033;-76
2020/12/09 09:52:12;;;;;;;64.85;28.27;;;4.70;90.00;;;;;;5020877;28;20057;-77
2020/12/09 09:54:38;;;;;;;67.25;27.40;;;4.70;89.90;;;;;;5040224;28;20029;-77
2020/12/09 09:57:04;;;;;;;68.72;28.92;;;4.70;89.70;;;;;;5017604;28;20021;-76
2020/12/09 09:59:30;;;;;;;65.03;28.45;;;4.70;89.90;;;;;;5023332;28;20029;-77
2020/12/09 10:01:56;;;;;;;60.75;25.92;;;4.60;90.00;;;;;;5035691;28;20448;-77
2020/12/09 10:04:23;;;;;;;67.95;27.80;;;4.60;90.10;;;;;;5006437;28;20500;-76
2020/12/09 10:06:50;;;;;;;60.78;26.73;;;4.70;90.10;;;;;;5023650;28;20029;-76
2020/12/09 10:09:17;;;;;;;61.78;27.13;;;4.60;90.10;;;;;;5039945;28;20033;-76
2020/12/09 10:11:46;;;;;;;54.00;24.40;;;4.70;90.00;;;;;;5036740;28;20116;-77
2020/12/09 10:14:13;;;;;;;62.63;26.15;;;4.70;89.80;;;;;;5035889;28;20029;-77
2020/12/09 10:16:41;;;;;;;64.95;26.63;;;4.70;90.00;;;;;;5020280;28;20053;-77
2020/12/09 10:19:07;;;;;;;63.33;26.08;;;4.70;89.90;;;;;;5023901;28;20082;-77
2020/12/09 10:21:33;;;;;;;59.25;25.05;;;4.70;90.00;;;;;;5020979;28;20021;-76
2020/12/09 10:24:01;;;;;;;60.30;27.05;;;4.70;90.00;;;;;;5015937;28;20091;-76
2020/12/09 10:26:32;;;;;;;58.17;26.08;;;4.70;90.00;;;;;;5027205;28;20079;-76
2020/12/09 10:29:01;;;;;;;66.22;25.60;;;4.60;89.80;;;;;;5017269;28;20017;-76
2020/12/09 10:31:49;;;;;;;60.10;25.38;;;4.70;90.00;;;;;;5001866;28;20071;-76
2020/12/09 10:34:18;;;;;;;63.45;27.45;;;4.70;90.00;;;;;;5020881;28;20511;-76
2020/12/09 10:36:48;;;;;;;63.60;25.55;;;4.70;89.90;;;;;;5040088;28;20032;-76
2020/12/09 10:39:14;;;;;;;56.58;24.98;;;4.70;89.90;;;;;;5016708;28;20042;-76
2020/12/09 10:41:41;;;;;;;59.80;26.55;;;4.70;89.80;;;;;;5017091;28;20680;-75
2020/12/09 10:44:07;;;;;;;60.30;25.55;;;4.70;89.80;;;;;;5018571;28;20030;-76
2020/12/09 10:46:35;;;;;;;67.00;28.45;;;4.70;89.80;;;;;;5032504;28;20390;-76
2020/12/09 10:49:02;;;;;;;62.88;26.55;;;4.70;89.90;;;;;;5017403;28;20048;-76
2020/12/09 10:51:28;;;;;;;63.70;28.42;;;4.70;89.90;;;;;;5031877;28;20104;-76
2020/12/09 10:53:55;;;;;;;55.53;23.20;;;4.70;90.00;;;;;;5017148;28;20028;-75
2020/12/09 10:56:28;;;;;;;59.15;25.88;;;4.70;90.00;;;;;;5006502;28;20048;-76
2020/12/09 10:59:00;;;;;;;61.33;25.52;;;4.80;90.00;;;;;;4996952;28;20021;-76
2020/12/09 11:01:26;;;;;;;63.97;25.98;;;4.80;90.30;;;;;;5002611;28;20017;-76
2020/12/09 11:03:55;;;;;;;63.08;28.35;;;4.80;90.00;;;;;;5004859;28;20542;-76
2020/12/09 11:06:29;;;;;;;68.38;27.67;;;4.80;90.00;;;;;;5018034;28;20052;-75
2020/12/09 11:08:56;;;;;;;63.58;26.63;;;4.80;90.00;;;;;;5011888;28;20021;-76
2020/12/09 11:11:23;;;;;;;64.38;26.70;;;4.80;90.00;;;;;;5014630;28;20028;-75
2020/12/09 11:13:49;;;;;;;75.78;30.23;;;4.80;90.00;;;;;;5018809;28;20037;-75
2020/12/09 11:16:15;;;;;;;66.22;28.85;;;4.80;89.90;;;;;;5016635;28;20047;-75
2020/12/09 11:18:42;;;;;;;70.90;29.40;;;4.90;89.90;;;;;;5014624;28;20451;-75
2020/12/09 11:21:08;;;;;;;71.13;28.85;;;4.80;89.80;;;;;;5018344;28;20041;-75
2020/12/09 11:23:34;;;;;;;70.30;28.45;;;4.80;89.80;;;;;;5015097;28;20028;-76
2020/12/09 11:25:59;;;;;;;65.43;28.73;;;4.90;90.00;;;;;;4997437;28;20025;-76
2020/12/09 11:28:25;;;;;;;68.53;28.05;;;4.80;89.90;;;;;;5020367;28;20144;-76
2020/12/09 11:30:51;;;;;;;67.55;28.23;;;4.90;89.90;;;;;;5020638;28;20042;-76
2020/12/09 11:33:16;;;;;;;66.63;28.17;;;4.90;89.90;;;;;;5050252;28;20100;-75
2020/12/09 11:35:42;;;;;;;68.97;29.55;;;4.90;89.90;;;;;;5039382;28;20080;-75
2020/12/09 11:38:08;;;;;;;70.32;29.27;;;4.90;89.80;;;;;;5042308;28;20436;-75
2020/12/09 11:40:34;;;;;;;70.60;30.35;;;4.90;89.70;;;;;;5018078;28;20029;-75
2020/12/09 11:42:59;;;;;;;69.43;30.88;;;4.90;89.80;;;;;;5006360;28;20025;-76
2020/12/09 11:45:25;;;;;;;66.10;29.42;;;4.90;89.80;;;;;;5033854;28;20021;-75
2020/12/09 11:47:51;;;;;;;73.70;30.27;;;4.90;89.80;;;;;;5018145;28;20025;-75
2020/12/09 11:50:17;;;;;;;72.28;29.63;;;4.90;89.90;;;;;;5037092;28;20056;-76
2020/12/09 11:52:42;;;;;;;69.05;29.25;;;4.90;89.80;;;;;;5022747;28;20053;-75
2020/12/09 11:55:08;;;;;;;64.55;27.35;;;4.80;89.70;;;;;;5025886;28;20025;-76
2020/12/09 11:57:34;;;;;;;72.57;30.25;;;4.90;89.80;;;;;;5038901;28;20443;-75
2020/12/09 12:00:00;;;;;;;72.07;30.02;;;4.90;89.50;;;;;;5047891;28;20099;-78
2020/12/09 12:02:26;;;;;;;67.28;30.17;;;4.90;89.60;;;;;;5012720;28;20044;-74
2020/12/09 12:04:55;;;;;;;67.97;29.35;;;4.90;89.80;;;;;;5022005;28;20036;-75
2020/12/09 12:07:21;;;;;;;102.15;37.45;;;4.90;89.60;;;;;;5022518;28;20036;-75
2020/12/09 12:09:47;;;;;;;72.30;29.80;;;4.90;90.00;;;;;;5016684;28;20033;-75
2020/12/09 12:12:13;;;;;;;66.40;30.15;;;4.90;89.50;;;;;;5022288;28;20026;-76
2020/12/09 12:14:39;;;;;;;68.82;29.83;;;4.90;89.50;;;;;;5033632;28;20032;-75
2020/12/09 12:17:08;;;;;;;71.65;31.67;;;4.90;89.40;;;;;;5005112;28;20017;-75
2020/12/09 12:19:35;;;;;;;74.82;30.15;;;4.90;89.50;;;;;;5019827;28;20067;-75
2020/12/09 12:22:01;;;;;;;67.90;29.95;;;4.90;89.60;;;;;;5023931;28;20033;-75
2020/12/09 12:24:26;;;;;;;65.63;29.65;;;4.90;89.60;;;;;;5015854;28;20032;-76
2020/12/09 12:26:52;;;;;;;70.18;30.13;;;5.00;89.40;;;;;;5023501;28;20025;-76
2020/12/09 12:29:18;;;;;;;73.75;31.38;;;4.90;89.40;;;;;;5017580;28;20136;-75
2020/12/09 12:31:43;;;;;;;77.05;31.48;;;4.90;89.30;;;;;;5035365;28;20060;-75
2020/12/09 12:34:09;;;;;;;81.63;32.50;;;5.10;91.80;;;;;;5034903;28;20025;-75
2020/12/09 12:36:35;;;;;;;73.82;29.65;;;5.30;90.20;;;;;;5011131;28;20030;-76
2020/12/09 12:39:00;;;;;;;79.15;33.67;;;5.40;91.40;;;;;;5016244;28;20032;-75
2020/12/09 12:41:26;;;;;;;73.60;31.38;;;5.70;90.10;;;;;;5036223;28;20034;-76